createdAt,value
2024-03-13T00:01:02.562Z,91.80
2024-03-13T00:03:56.680Z,91.74
2024-03-13T00:06:51.470Z,91.69
2024-03-13T00:09:47.387Z,91.62
2024-03-13T00:12:43.839Z,91.56
2024-03-13T00:15:38.066Z,91.53
2024-03-13T00:18:32.247Z,91.50
2024-03-13T00:21:28.437Z,91.49
2024-03-13T00:24:22.124Z,91.50
2024-03-13T00:27:16.396Z,91.53
2024-03-13T00:30:13.889Z,91.54
2024-03-13T00:33:09.600Z,91.48
2024-03-13T00:36:04.758Z,91.48
2024-03-13T00:39:00.941Z,91.50
2024-03-13T00:41:56.396Z,91.48
2024-03-13T00:44:52.992Z,91.53
2024-03-13T00:47:47.173Z,91.56
2024-03-13T00:50:41.523Z,91.53
2024-03-13T00:53:35.726Z,91.52
2024-03-13T00:56:30.554Z,91.55
2024-03-13T00:59:25.063Z,91.60
2024-03-13T01:02:18.763Z,91.66
2024-03-13T01:05:14.882Z,91.67
2024-03-13T01:08:09.987Z,91.66
2024-03-13T01:11:03.684Z,91.67
2024-03-13T01:13:57.973Z,91.71
2024-03-13T01:16:54.503Z,91.74
2024-03-13T01:19:48.671Z,91.77
2024-03-13T01:22:45.442Z,91.83
2024-03-13T01:25:42.220Z,91.85
2024-03-13T01:28:36.546Z,91.85
2024-03-13T01:31:31.426Z,91.85
2024-03-13T01:34:24.967Z,91.88
2024-03-13T01:37:36.034Z,91.87
2024-03-13T01:40:50.569Z,91.88
2024-03-13T01:44:01.958Z,91.86
2024-03-13T01:47:13.115Z,91.86
2024-03-13T01:50:28.941Z,91.83
2024-03-13T01:53:41.434Z,91.82
2024-03-13T01:56:33.264Z,91.82
2024-03-13T01:59:36.742Z,91.77
2024-03-13T02:02:30.700Z,91.79
2024-03-13T02:05:26.517Z,91.81
2024-03-13T02:08:22.597Z,91.83
2024-03-13T02:11:16.571Z,91.82
2024-03-13T02:14:11.113Z,91.85
2024-03-13T02:17:04.999Z,91.90
2024-03-13T02:19:59.984Z,91.93
2024-03-13T02:22:54.692Z,91.99
2024-03-13T02:25:45.053Z,92.06
2024-03-13T02:28:34.894Z,92.12
2024-03-13T02:31:24.874Z,92.12
2024-03-13T02:34:14.808Z,92.15
2024-03-13T02:37:04.939Z,92.18
2024-03-13T02:39:55.340Z,92.22
2024-03-13T02:42:46.305Z,92.26
2024-03-13T02:45:36.655Z,92.27
2024-03-13T02:48:26.412Z,92.18
2024-03-13T02:51:16.378Z,92.16
2024-03-13T02:54:07.168Z,92.16
2024-03-13T02:56:58.815Z,92.15
2024-03-13T02:59:48.611Z,92.14
2024-03-13T03:02:38.473Z,92.15
2024-03-13T03:05:28.484Z,92.16
2024-03-13T03:08:18.436Z,92.19
2024-03-13T03:11:08.108Z,92.21
2024-03-13T03:13:58.265Z,92.24
2024-03-13T03:16:47.743Z,92.28
2024-03-13T03:19:37.546Z,92.30
2024-03-13T03:22:27.278Z,92.34
2024-03-13T03:25:17.304Z,92.30
2024-03-13T03:28:07.392Z,92.24
2024-03-13T03:30:58.231Z,92.17
2024-03-13T03:33:47.717Z,92.16
2024-03-13T03:36:37.778Z,92.12
2024-03-13T03:39:27.765Z,92.02
2024-03-13T03:42:18.293Z,92.00
2024-03-13T03:45:08.224Z,92.01
2024-03-13T03:48:04.560Z,92.00
2024-03-13T03:50:57.189Z,92.01
2024-03-13T03:53:47.165Z,92.01
2024-03-13T03:56:41.060Z,91.99
2024-03-13T03:59:32.161Z,91.94
2024-03-13T04:02:21.593Z,91.92
2024-03-13T04:05:11.262Z,91.90
2024-03-13T04:08:00.827Z,91.92
2024-03-13T04:10:50.495Z,91.95
2024-03-13T04:13:40.391Z,91.95
2024-03-13T04:16:32.725Z,91.95
2024-03-13T04:19:22.892Z,91.97
2024-03-13T04:22:14.587Z,91.98
2024-03-13T04:25:05.400Z,91.98
2024-03-13T04:27:56.658Z,91.93
2024-03-13T04:30:47.564Z,91.94
2024-03-13T04:33:38.074Z,91.93
2024-03-13T04:36:28.119Z,91.95
2024-03-13T04:39:17.724Z,92.03
2024-03-13T04:42:09.006Z,92.02
2024-03-13T04:45:00.048Z,92.10
2024-03-13T04:47:50.546Z,92.15
2024-03-13T04:50:40.504Z,92.21
2024-03-13T04:53:30.384Z,92.23
2024-03-13T04:56:19.827Z,92.27
2024-03-13T04:59:09.334Z,92.33
2024-03-13T05:01:59.044Z,92.37
2024-03-13T05:04:48.951Z,92.43
2024-03-13T05:07:38.744Z,92.48
2024-03-13T05:10:30.816Z,92.53
2024-03-13T05:13:20.429Z,92.58
2024-03-13T05:16:11.268Z,92.58
2024-03-13T05:19:01.367Z,92.58
2024-03-13T05:21:50.952Z,92.59
2024-03-13T05:24:40.578Z,92.59
2024-03-13T05:27:30.276Z,92.60
2024-03-13T05:30:19.872Z,92.56
2024-03-13T05:33:09.523Z,92.52
2024-03-13T05:35:58.950Z,92.51
2024-03-13T05:38:48.831Z,92.48
2024-03-13T05:41:38.539Z,92.47
2024-03-13T05:44:28.724Z,92.45
2024-03-13T05:47:18.614Z,92.43
2024-03-13T05:50:09.087Z,92.40
2024-03-13T05:52:58.848Z,92.35
2024-03-13T05:55:48.634Z,92.34
2024-03-13T05:58:38.136Z,92.35
2024-03-13T06:01:30.147Z,92.34
2024-03-13T06:04:24.656Z,92.34
2024-03-13T06:07:14.531Z,92.35
2024-03-13T06:10:04.294Z,92.37
2024-03-13T06:12:55.064Z,92.40
2024-03-13T06:15:44.999Z,92.42
2024-03-13T06:18:35.309Z,92.43
2024-03-13T06:21:24.861Z,92.41
2024-03-13T06:24:21.399Z,92.42
2024-03-13T06:27:16.721Z,92.37
2024-03-13T06:30:10.331Z,92.37
2024-03-13T06:33:00.187Z,92.38
2024-03-13T06:35:49.709Z,92.33
2024-03-13T06:38:39.359Z,92.31
2024-03-13T06:41:29.221Z,92.29
2024-03-13T06:44:19.103Z,92.24
2024-03-13T06:47:08.894Z,92.14
2024-03-13T06:49:58.701Z,92.04
2024-03-13T06:52:48.379Z,91.92
2024-03-13T06:55:38.281Z,91.89
2024-03-13T06:58:29.025Z,91.86
2024-03-13T07:01:20.408Z,91.84
2024-03-13T07:04:10.490Z,91.80
2024-03-13T07:07:00.944Z,91.75
2024-03-13T07:09:50.960Z,91.71
2024-03-13T07:12:40.456Z,91.69
2024-03-13T07:15:30.440Z,91.68
2024-03-13T07:18:19.912Z,91.65
2024-03-13T07:21:09.159Z,91.63
2024-03-13T07:23:58.663Z,91.67
2024-03-13T07:26:48.502Z,91.69
2024-03-13T07:29:37.856Z,91.72
2024-03-13T07:32:31.584Z,91.73
2024-03-13T07:35:22.572Z,91.66
2024-03-13T07:38:12.143Z,91.60
2024-03-13T07:41:03.011Z,91.45
2024-03-13T07:43:52.338Z,91.23
2024-03-13T07:46:42.087Z,91.12
2024-03-13T07:49:33.939Z,90.96
2024-03-13T07:52:23.757Z,90.67
2024-03-13T07:55:13.379Z,90.47
2024-03-13T07:58:04.326Z,90.32
2024-03-13T08:00:55.291Z,89.82
2024-03-13T08:03:44.749Z,89.59
2024-03-13T09:06:10.780Z,88.31
2024-03-13T09:09:00.864Z,88.38
2024-03-13T09:11:50.500Z,88.27
2024-03-13T09:14:42.054Z,88.25
2024-03-13T09:17:32.001Z,88.31
2024-03-13T09:20:26.744Z,88.34
2024-03-13T09:23:16.482Z,88.35
2024-03-13T09:26:06.641Z,88.37
2024-03-13T09:28:59.604Z,88.31
2024-03-13T09:31:49.095Z,88.30
2024-03-13T09:34:40.710Z,88.20
2024-03-13T09:37:30.669Z,88.14
2024-03-13T09:40:20.779Z,88.18
2024-03-13T09:43:10.171Z,88.31
2024-03-13T09:45:59.595Z,88.38
2024-03-13T09:48:49.352Z,88.38
2024-03-13T09:51:39.842Z,88.47
2024-03-13T09:54:29.573Z,88.47
2024-03-13T09:57:19.192Z,88.49
2024-03-13T10:00:11.088Z,88.49
2024-03-13T10:03:04.041Z,88.49
2024-03-13T10:05:53.998Z,88.55
2024-03-13T10:08:44.038Z,88.59
2024-03-13T10:11:33.231Z,88.62
2024-03-13T10:14:22.737Z,88.64
2024-03-13T10:17:12.137Z,88.66
2024-03-13T10:20:01.573Z,88.59
2024-03-13T10:22:51.272Z,88.60
2024-03-13T10:25:41.166Z,88.58
2024-03-13T10:28:30.795Z,88.62
2024-03-13T10:31:20.145Z,88.62
2024-03-13T10:34:10.723Z,88.71
2024-03-13T10:37:08.084Z,88.76
2024-03-13T10:40:01.261Z,88.85
2024-03-13T10:42:50.858Z,88.80
2024-03-13T10:45:40.793Z,88.84
2024-03-13T10:48:30.566Z,88.87
2024-03-13T10:51:22.946Z,88.86
2024-03-13T10:54:13.813Z,88.83
2024-03-13T10:57:03.759Z,88.90
2024-03-13T10:59:53.816Z,88.93
2024-03-13T11:02:43.003Z,88.94
2024-03-13T11:05:33.569Z,88.96
2024-03-13T11:08:28.121Z,88.99
2024-03-13T11:11:21.122Z,89.04
2024-03-13T11:14:12.136Z,89.07
2024-03-13T11:17:01.564Z,89.07
2024-03-13T11:19:51.689Z,89.09
2024-03-13T11:22:42.916Z,89.10
2024-03-13T11:25:34.645Z,89.07
2024-03-13T11:28:24.173Z,89.02
2024-03-13T11:31:14.879Z,88.99
2024-03-13T11:34:04.212Z,88.91
2024-03-13T11:36:53.838Z,88.86
2024-03-13T11:39:43.132Z,88.86
2024-03-13T11:42:32.427Z,88.80
2024-03-13T11:45:24.428Z,88.71
2024-03-13T11:48:17.856Z,88.71
2024-03-13T11:51:11.987Z,88.63
2024-03-13T11:54:13.313Z,88.66
2024-03-13T11:57:05.863Z,88.67
2024-03-13T11:59:56.375Z,88.65
2024-03-13T12:02:46.136Z,88.66
2024-03-13T12:05:36.562Z,88.68
2024-03-13T12:08:25.691Z,88.74
2024-03-13T12:11:19.598Z,88.75
2024-03-13T12:14:08.978Z,88.78
2024-03-13T12:16:58.288Z,88.77
2024-03-13T12:19:48.390Z,88.79
2024-03-13T12:22:37.770Z,88.79
2024-03-13T12:25:27.027Z,88.72
2024-03-13T12:28:17.675Z,88.61
2024-03-13T12:31:11.154Z,88.51
2024-03-13T12:34:02.381Z,88.45
2024-03-13T12:36:53.053Z,88.44
2024-03-13T12:39:42.187Z,88.44
2024-03-13T12:42:32.433Z,88.46
2024-03-13T12:45:22.967Z,88.49
2024-03-13T12:48:12.288Z,88.56
2024-03-13T12:51:02.032Z,88.59
2024-03-13T12:53:52.939Z,88.65
2024-03-13T12:56:45.665Z,88.71
2024-03-13T12:59:35.373Z,88.75
2024-03-13T13:02:24.684Z,88.77
2024-03-13T13:05:14.634Z,88.78
2024-03-13T13:08:04.066Z,88.83
2024-03-13T13:10:53.818Z,88.83
2024-03-13T13:13:43.456Z,88.86
2024-03-13T13:16:32.711Z,88.87
2024-03-13T13:19:21.998Z,88.89
2024-03-13T13:22:13.366Z,88.85
2024-03-13T13:25:02.854Z,88.80
2024-03-13T13:27:54.063Z,88.74
2024-03-13T13:30:45.979Z,88.66
2024-03-13T13:33:36.248Z,88.67
2024-03-13T13:36:25.858Z,88.67
2024-03-13T13:39:15.561Z,88.56
2024-03-13T13:42:05.696Z,88.52
2024-03-13T13:44:55.832Z,88.47
2024-03-13T13:47:46.929Z,88.43
2024-03-13T13:50:36.853Z,88.35
2024-03-13T13:53:27.754Z,88.37
2024-03-13T13:56:17.151Z,88.40
2024-03-13T13:59:06.761Z,88.37
2024-03-13T14:01:56.645Z,88.35
2024-03-13T14:04:46.272Z,88.31
2024-03-13T14:07:36.324Z,88.24
2024-03-13T14:10:26.102Z,88.12
2024-03-13T14:13:17.321Z,88.05
2024-03-13T14:16:08.390Z,87.95
2024-03-13T14:18:58.167Z,87.75
2024-03-13T14:21:48.025Z,87.60
2024-03-13T14:24:38.409Z,87.36
2024-03-13T14:27:28.375Z,87.11
2024-03-13T14:30:21.881Z,86.90
2024-03-13T14:33:12.564Z,86.77
2024-03-13T14:36:02.604Z,86.59
2024-03-13T14:38:54.165Z,86.48
2024-03-13T14:41:45.257Z,86.39
2024-03-13T14:44:36.004Z,86.40
2024-03-13T14:47:26.055Z,86.32
2024-03-13T14:50:19.002Z,86.34
2024-03-13T14:53:13.779Z,86.28
2024-03-13T14:56:04.458Z,86.21
2024-03-13T14:58:54.261Z,86.14
2024-03-13T15:01:44.162Z,85.85
2024-03-13T15:04:33.885Z,85.79
2024-03-13T15:07:23.686Z,85.82
2024-03-13T15:10:14.206Z,85.71
2024-03-13T15:13:04.057Z,85.62
2024-03-13T15:15:54.589Z,85.52
2024-03-13T15:18:44.477Z,85.53
2024-03-13T15:21:34.976Z,85.54
2024-03-13T15:24:24.430Z,85.35
2024-03-13T15:27:15.135Z,85.39
2024-03-13T15:30:07.406Z,85.22
2024-03-13T15:32:58.225Z,85.06
2024-03-13T15:35:49.874Z,85.04
2024-03-13T15:38:40.008Z,84.93
2024-03-13T15:41:29.630Z,84.90
2024-03-13T15:44:18.991Z,84.86
2024-03-13T15:47:10.023Z,84.97
2024-03-13T15:49:59.754Z,84.94
2024-03-13T15:52:49.685Z,84.94
2024-03-13T15:55:39.432Z,84.97
2024-03-13T15:58:29.323Z,85.02
2024-03-13T16:01:18.657Z,85.05
2024-03-13T16:04:08.106Z,85.03
2024-03-13T16:07:04.213Z,85.07
2024-03-13T16:09:54.336Z,85.06
2024-03-13T16:12:44.323Z,85.04
2024-03-13T16:15:36.768Z,85.03
2024-03-13T16:18:26.201Z,85.11
2024-03-13T16:21:18.634Z,85.06
2024-03-13T16:24:08.442Z,85.06
2024-03-13T16:26:58.562Z,85.02
2024-03-13T16:29:48.560Z,85.03
2024-03-13T16:32:38.326Z,85.12
2024-03-13T16:35:28.778Z,85.09
2024-03-13T16:38:19.284Z,85.13
2024-03-13T16:41:09.539Z,85.20
2024-03-13T16:44:01.375Z,85.27
2024-03-13T16:46:50.562Z,85.25
2024-03-13T16:49:40.139Z,85.45
2024-03-13T16:52:29.855Z,85.58
2024-03-13T16:55:19.261Z,85.62
2024-03-13T16:58:09.564Z,85.66
2024-03-13T17:00:59.468Z,85.70
2024-03-13T17:03:49.374Z,85.75
2024-03-13T17:06:38.777Z,85.76
2024-03-13T17:09:28.711Z,85.76
2024-03-13T17:12:18.305Z,85.82
2024-03-13T17:15:09.537Z,85.91
2024-03-13T17:17:59.082Z,86.04
2024-03-13T17:20:50.098Z,86.12
2024-03-13T17:23:40.609Z,86.14
2024-03-13T17:26:31.522Z,86.19
2024-03-13T17:29:21.836Z,86.30
2024-03-13T17:32:12.145Z,86.44
2024-03-13T17:35:02.386Z,86.52
2024-03-13T17:37:52.531Z,86.57
2024-03-13T17:40:42.378Z,86.63
2024-03-13T17:43:32.282Z,86.68
2024-03-13T17:46:22.094Z,86.78
2024-03-13T17:49:11.645Z,86.89
2024-03-13T17:52:02.122Z,86.97
2024-03-13T17:54:53.798Z,87.06
2024-03-13T17:57:43.456Z,87.13
2024-03-13T18:00:34.732Z,87.18
2024-03-13T18:03:27.245Z,87.34
2024-03-13T18:06:20.218Z,87.44
2024-03-13T18:09:11.626Z,87.52
2024-03-13T18:12:03.820Z,87.60
2024-03-13T18:14:56.009Z,87.69
2024-03-13T18:17:47.162Z,87.80
2024-03-13T18:20:37.609Z,87.90
2024-03-13T18:23:30.954Z,88.08
2024-03-13T18:26:51.643Z,88.24
2024-03-13T18:29:47.684Z,88.39
2024-03-13T18:32:44.359Z,88.59
2024-03-13T18:35:44.974Z,88.72
2024-03-13T18:38:35.135Z,88.88
2024-03-13T18:41:25.878Z,89.10
2024-03-13T18:44:16.124Z,89.21
2024-03-13T18:47:07.651Z,89.32
2024-03-13T18:49:57.246Z,89.49
2024-03-13T18:52:51.327Z,89.59
2024-03-13T18:55:41.535Z,89.71
2024-03-13T18:58:33.705Z,89.84
2024-03-13T19:01:28.329Z,90.01
2024-03-13T19:04:19.481Z,90.09
2024-03-13T19:07:12.955Z,90.15
2024-03-13T19:10:05.752Z,90.24
2024-03-13T19:13:00.213Z,90.30
2024-03-13T19:15:53.117Z,90.37
2024-03-13T19:18:43.717Z,90.50
2024-03-13T19:21:36.844Z,90.59
2024-03-13T19:24:32.110Z,90.63
2024-03-13T19:27:22.403Z,90.70
2024-03-13T19:30:14.459Z,90.75
2024-03-13T19:33:05.973Z,90.82
2024-03-13T19:35:57.603Z,90.77
2024-03-13T19:38:50.075Z,90.85
2024-03-13T19:41:39.903Z,90.91
2024-03-13T19:44:32.795Z,90.95
2024-03-13T19:47:23.378Z,90.99
2024-03-13T19:50:24.283Z,91.05
2024-03-13T19:53:15.687Z,91.10
2024-03-13T19:56:10.470Z,91.18
2024-03-13T19:59:01.202Z,91.25
2024-03-13T20:01:52.041Z,91.33
2024-03-13T20:04:47.840Z,91.45
2024-03-13T20:07:37.716Z,91.50
2024-03-13T20:10:27.541Z,91.57
2024-03-13T20:13:21.848Z,91.60
2024-03-13T20:16:12.359Z,91.63
2024-03-13T20:19:02.628Z,91.65
2024-03-13T20:21:58.714Z,91.71
2024-03-13T20:24:49.022Z,91.72
2024-03-13T20:27:42.289Z,91.74
2024-03-13T20:30:32.390Z,91.78
2024-03-13T20:33:22.145Z,91.80
2024-03-13T20:36:12.137Z,91.81
2024-03-13T20:39:01.986Z,91.84
2024-03-13T20:41:52.215Z,91.86
2024-03-13T20:44:46.263Z,91.88
2024-03-13T20:47:36.405Z,91.90
2024-03-13T20:50:30.327Z,91.91
2024-03-13T20:53:24.478Z,91.92
2024-03-13T20:56:23.497Z,91.95
2024-03-13T20:59:14.986Z,91.96
2024-03-13T21:02:08.823Z,91.97
2024-03-13T21:04:59.325Z,91.99
2024-03-13T21:07:50.917Z,92.01
2024-03-13T21:10:41.504Z,92.04
2024-03-13T21:13:31.601Z,92.05
2024-03-13T21:16:23.081Z,92.05
2024-03-13T21:19:13.059Z,92.06
2024-03-13T21:22:08.368Z,92.08
2024-03-13T21:25:02.244Z,92.10
2024-03-13T21:27:52.843Z,92.11
2024-03-13T21:30:42.443Z,92.08
2024-03-13T21:33:39.241Z,92.09
2024-03-13T21:36:29.793Z,92.07
2024-03-13T21:39:25.667Z,92.08
2024-03-13T21:42:19.039Z,92.11
2024-03-13T21:45:11.220Z,92.13
2024-03-13T21:48:01.495Z,92.13
2024-03-13T21:50:55.602Z,92.14
2024-03-13T21:53:46.356Z,92.15
2024-03-13T21:56:37.864Z,92.17
2024-03-13T21:59:28.856Z,92.19
2024-03-13T22:02:20.748Z,92.19
2024-03-13T22:05:12.387Z,92.21
2024-03-13T22:08:06.050Z,92.23
2024-03-13T22:10:57.746Z,92.26
2024-03-13T22:13:51.650Z,92.29
2024-03-13T22:16:42.740Z,92.30
2024-03-13T22:19:33.667Z,92.33
2024-03-13T22:22:25.406Z,92.35
2024-03-13T22:25:16.711Z,92.37
2024-03-13T22:28:10.554Z,92.39
2024-03-13T22:31:03.333Z,92.41
2024-03-13T22:34:02.379Z,92.43
2024-03-13T22:37:03.462Z,92.45
2024-03-13T22:39:58.258Z,92.53
2024-03-13T22:42:56.356Z,92.55
2024-03-13T22:45:50.685Z,92.56
2024-03-13T22:48:42.508Z,92.62
2024-03-13T22:51:42.213Z,92.68
2024-03-13T22:54:50.615Z,92.68
2024-03-13T22:57:47.315Z,92.72
2024-03-13T23:00:41.193Z,92.76
2024-03-13T23:03:32.857Z,92.77
2024-03-13T23:06:25.723Z,92.78
2024-03-13T23:09:26.535Z,92.80
2024-03-13T23:12:31.869Z,92.78
2024-03-13T23:15:33.044Z,92.77
2024-03-13T23:18:23.062Z,92.78
2024-03-13T23:21:21.190Z,92.79
2024-03-13T23:24:16.146Z,92.82
2024-03-13T23:27:08.269Z,92.82
2024-03-13T23:29:58.352Z,92.84
2024-03-13T23:32:48.471Z,92.86
2024-03-13T23:35:38.123Z,92.89
2024-03-13T23:38:31.070Z,92.92
2024-03-13T23:41:20.873Z,92.95
2024-03-13T23:44:10.359Z,92.97
2024-03-13T23:47:05.778Z,93.01
2024-03-13T23:50:02.318Z,93.04
2024-03-13T23:52:52.289Z,93.06
2024-03-13T23:55:44.926Z,93.08
2024-03-13T23:58:36.723Z,93.11
